createdAt,value
2022-11-10T00:00:42.821Z,8.30
2022-11-10T00:03:12.210Z,8.20
2022-11-10T00:05:42.065Z,8.20
2022-11-10T00:08:13.173Z,8.20
2022-11-10T00:10:55.977Z,8.10
2022-11-10T00:13:25.302Z,8.10
2022-11-10T00:16:11.484Z,7.90
2022-11-10T00:18:40.190Z,7.80
2022-11-10T00:21:12.036Z,7.80
2022-11-10T00:23:41.148Z,7.70
2022-11-10T00:26:14.042Z,7.60
2022-11-10T00:28:42.487Z,7.50
2022-11-10T00:31:11.742Z,7.50
2022-11-10T00:33:41.811Z,7.50
2022-11-10T00:36:12.312Z,7.50
2022-11-10T00:38:40.614Z,7.50
2022-11-10T00:41:09.044Z,7.50
2022-11-10T00:43:37.349Z,7.50
2022-11-10T00:46:05.549Z,7.50
2022-11-10T00:48:33.748Z,7.60
2022-11-10T00:51:02.040Z,7.60
2022-11-10T00:53:31.783Z,7.60
2022-11-10T00:55:59.997Z,7.60
2022-11-10T00:58:28.177Z,7.60
2022-11-10T01:01:02.377Z,7.70
2022-11-10T01:03:30.914Z,7.60
2022-11-10T01:05:59.376Z,7.70
2022-11-10T01:08:27.656Z,7.60
2022-11-10T01:11:04.882Z,7.60
2022-11-10T01:13:33.535Z,7.50
2022-11-10T01:16:05.475Z,7.50
2022-11-10T01:18:33.722Z,7.40
2022-11-10T01:21:02.427Z,7.40
2022-11-10T01:23:30.837Z,7.30
2022-11-10T01:25:59.516Z,7.30
2022-11-10T01:28:29.427Z,7.30
2022-11-10T01:31:01.136Z,7.30
2022-11-10T01:33:29.489Z,7.20
2022-11-10T01:35:57.993Z,7.20
2022-11-10T01:38:28.834Z,7.20
2022-11-10T01:40:57.522Z,7.10
2022-11-10T01:43:26.381Z,7.20
2022-11-10T01:46:01.038Z,7.10
2022-11-10T01:48:34.012Z,7.10
2022-11-10T01:51:05.641Z,7.10
2022-11-10T01:53:38.077Z,7.00
2022-11-10T01:56:07.566Z,7.00
2022-11-10T01:58:40.315Z,7.00
2022-11-10T02:01:11.242Z,7.00
2022-11-10T02:03:44.636Z,7.00
2022-11-10T02:06:14.675Z,7.00
2022-11-10T02:08:43.703Z,7.00
2022-11-10T02:11:12.891Z,7.00
2022-11-10T02:13:41.568Z,7.00
2022-11-10T02:16:12.130Z,7.00
2022-11-10T02:18:40.559Z,7.10
2022-11-10T02:21:10.935Z,7.00
2022-11-10T02:23:50.442Z,7.00
2022-11-10T02:26:23.049Z,7.00
2022-11-10T02:28:51.470Z,7.00
2022-11-10T02:31:19.887Z,7.00
2022-11-10T02:33:48.372Z,7.00
2022-11-10T02:36:18.227Z,7.00
2022-11-10T02:38:46.497Z,7.00
2022-11-10T02:41:14.752Z,7.00
2022-11-10T02:43:43.315Z,7.00
2022-11-10T02:46:11.499Z,7.00
2022-11-10T02:48:39.866Z,7.00
2022-11-10T02:51:08.278Z,7.10
2022-11-10T02:53:38.229Z,7.10
2022-11-10T02:56:07.465Z,7.10
2022-11-10T02:58:35.662Z,7.10
2022-11-10T03:01:07.108Z,7.10
2022-11-10T03:03:36.310Z,7.00
2022-11-10T03:06:22.244Z,7.10
2022-11-10T03:08:50.657Z,7.10
2022-11-10T03:11:18.958Z,7.10
2022-11-10T03:14:01.077Z,7.10
2022-11-10T03:16:30.541Z,7.10
2022-11-10T03:18:58.951Z,7.10
2022-11-10T03:21:28.539Z,7.10
2022-11-10T03:23:56.822Z,7.10
2022-11-10T03:26:25.086Z,7.10
2022-11-10T03:28:53.285Z,7.10
2022-11-10T03:31:21.620Z,7.10
2022-11-10T03:33:49.868Z,7.10
2022-11-10T03:36:18.136Z,7.10
2022-11-10T03:38:48.067Z,7.20
2022-11-10T03:41:20.728Z,7.10
2022-11-10T03:43:49.333Z,7.20
2022-11-10T03:46:17.744Z,7.20
2022-11-10T03:48:51.799Z,7.20
2022-11-10T03:51:21.891Z,7.30
2022-11-10T03:53:51.730Z,7.30
2022-11-10T03:56:20.331Z,7.30
2022-11-10T03:58:48.600Z,7.20
2022-11-10T04:01:17.212Z,7.30
2022-11-10T04:03:51.038Z,7.20
2022-11-10T04:06:37.255Z,7.30
2022-11-10T04:09:07.902Z,7.30
2022-11-10T04:11:53.408Z,7.30
2022-11-10T04:14:38.805Z,7.30
2022-11-10T04:17:07.068Z,7.40
2022-11-10T04:19:35.290Z,7.30
2022-11-10T04:22:03.651Z,7.30
2022-11-10T04:24:33.462Z,7.40
2022-11-10T04:27:01.714Z,7.40
2022-11-10T04:29:29.991Z,7.40
2022-11-10T04:31:58.134Z,7.50
2022-11-10T04:34:26.309Z,7.50
2022-11-10T04:36:54.540Z,7.50
2022-11-10T04:39:22.698Z,7.50
2022-11-10T04:41:52.595Z,7.50
2022-11-10T04:44:20.953Z,7.50
2022-11-10T04:46:49.677Z,7.50
2022-11-10T04:49:18.876Z,7.50
2022-11-10T04:51:49.352Z,7.60
2022-11-10T04:54:17.757Z,7.50
2022-11-10T04:56:46.217Z,7.50
2022-11-10T04:59:15.951Z,7.60
2022-11-10T05:01:44.437Z,7.60
2022-11-10T05:04:12.764Z,7.70
2022-11-10T05:06:41.198Z,7.80
2022-11-10T05:09:09.652Z,7.80
2022-11-10T05:11:37.825Z,7.80
2022-11-10T05:14:06.265Z,7.90
2022-11-10T05:16:37.712Z,8.00
2022-11-10T05:19:06.101Z,8.00
2022-11-10T05:21:34.285Z,8.00
2022-11-10T05:24:02.686Z,8.00
2022-11-10T05:26:30.859Z,8.00
2022-11-10T05:28:59.183Z,8.00
2022-11-10T05:31:27.641Z,8.00
2022-11-10T05:33:57.648Z,8.00
2022-11-10T05:36:25.937Z,7.90
2022-11-10T05:38:54.297Z,8.00
2022-11-10T05:41:22.551Z,7.90
2022-11-10T05:43:50.875Z,8.00
2022-11-10T05:46:19.178Z,8.00
2022-11-10T05:48:48.519Z,8.00
2022-11-10T05:51:18.449Z,8.00
2022-11-10T05:53:46.795Z,8.10
2022-11-10T05:56:15.079Z,8.10
2022-11-10T05:58:43.562Z,8.10
2022-11-10T06:01:11.781Z,8.10
2022-11-10T06:03:40.314Z,8.20
2022-11-10T06:06:09.244Z,8.30
2022-11-10T06:08:38.933Z,8.30
2022-11-10T06:11:07.328Z,8.40
2022-11-10T06:13:35.557Z,8.50
2022-11-10T06:16:03.791Z,8.50
2022-11-10T06:18:32.026Z,8.50
2022-11-10T06:21:00.324Z,8.50
2022-11-10T06:23:30.204Z,8.60
2022-11-10T06:25:59.936Z,8.60
2022-11-10T06:28:28.231Z,8.70
2022-11-10T06:30:59.381Z,8.70
2022-11-10T06:33:27.631Z,8.80
2022-11-10T06:35:55.842Z,8.90
2022-11-10T06:38:24.124Z,9.00
2022-11-10T06:40:52.505Z,9.10
2022-11-10T06:43:22.660Z,9.30
2022-11-10T06:45:51.118Z,9.50
2022-11-10T06:48:19.567Z,9.60
2022-11-10T06:50:47.846Z,9.70
2022-11-10T06:53:17.173Z,9.80
2022-11-10T06:55:45.581Z,9.80
2022-11-10T06:58:13.799Z,9.90
2022-11-10T07:00:43.613Z,10.00
2022-11-10T07:03:14.646Z,10.00
2022-11-10T07:05:43.520Z,10.00
2022-11-10T07:08:16.054Z,10.10
2022-11-10T07:10:45.091Z,10.10
2022-11-10T07:13:13.532Z,10.10
2022-11-10T07:15:43.221Z,10.20
2022-11-10T07:18:11.369Z,10.20
2022-11-10T07:20:39.948Z,10.30
2022-11-10T07:23:09.473Z,10.30
2022-11-10T07:25:39.223Z,10.40
2022-11-10T07:28:10.597Z,10.40
2022-11-10T07:30:41.446Z,10.40
2022-11-10T07:33:13.679Z,10.40
2022-11-10T07:35:42.612Z,10.50
2022-11-10T07:38:13.056Z,10.50
2022-11-10T07:40:41.680Z,10.60
2022-11-10T07:43:10.047Z,10.60
2022-11-10T07:45:38.396Z,10.60
2022-11-10T07:48:08.141Z,10.70
2022-11-10T07:50:37.958Z,10.70
2022-11-10T07:53:07.176Z,10.70
2022-11-10T07:55:36.183Z,10.70
2022-11-10T07:58:04.608Z,10.80
2022-11-10T08:00:33.429Z,10.80
2022-11-10T08:03:06.079Z,10.90
2022-11-10T08:05:34.820Z,11.00
2022-11-10T08:08:05.001Z,11.00
2022-11-10T08:10:34.738Z,11.10
2022-11-10T08:13:04.348Z,11.10
2022-11-10T08:15:34.320Z,11.20
2022-11-10T08:18:03.400Z,11.20
2022-11-10T08:20:32.255Z,11.30
2022-11-10T08:23:01.846Z,11.30
2022-11-10T08:25:35.169Z,11.30
2022-11-10T08:28:05.606Z,11.30
2022-11-10T08:30:36.044Z,11.30
2022-11-10T08:33:06.512Z,11.30
2022-11-10T08:35:38.367Z,11.30
2022-11-10T08:38:12.252Z,11.40
2022-11-10T08:40:43.711Z,11.40
2022-11-10T08:43:14.325Z,11.40
2022-11-10T08:45:49.546Z,11.50
2022-11-10T08:48:22.459Z,11.50
2022-11-10T08:50:53.430Z,11.60
2022-11-10T08:53:23.983Z,11.60
2022-11-10T08:55:54.809Z,11.60
2022-11-10T08:58:24.963Z,11.70
2022-11-10T09:00:53.754Z,11.70
2022-11-10T09:03:24.242Z,11.80
2022-11-10T09:05:58.327Z,11.80
2022-11-10T09:08:39.353Z,11.90
2022-11-10T09:11:10.468Z,12.00
2022-11-10T09:13:46.497Z,12.00
2022-11-10T09:16:18.038Z,12.00
2022-11-10T09:18:48.959Z,12.10
2022-11-10T09:21:20.280Z,12.10
2022-11-10T09:23:52.709Z,12.10
2022-11-10T09:26:27.890Z,12.20
2022-11-10T09:29:02.145Z,12.20
2022-11-10T09:31:34.239Z,12.20
2022-11-10T09:34:05.716Z,12.30
2022-11-10T09:36:35.562Z,12.30
2022-11-10T09:39:06.498Z,12.40
2022-11-10T09:41:45.509Z,12.40
2022-11-10T09:44:19.168Z,12.40
2022-11-10T09:46:52.362Z,12.40
2022-11-10T09:49:35.623Z,12.40
2022-11-10T09:52:04.649Z,12.50
2022-11-10T09:54:41.807Z,12.50
2022-11-10T09:57:24.558Z,12.50
2022-11-10T09:59:53.727Z,12.60
2022-11-10T10:02:30.333Z,12.60
2022-11-10T10:05:39.680Z,12.60
2022-11-10T10:08:10.825Z,12.60
2022-11-10T10:10:46.481Z,12.60
2022-11-10T10:13:50.107Z,12.70
2022-11-10T10:16:25.078Z,12.70
2022-11-10T10:19:00.050Z,12.70
2022-11-10T10:21:42.671Z,12.70
2022-11-10T10:24:21.228Z,12.70
2022-11-10T10:26:53.809Z,12.70
2022-11-10T10:29:27.293Z,12.60
2022-11-10T10:31:58.925Z,12.60
2022-11-10T10:34:30.767Z,12.60
2022-11-10T10:37:12.968Z,12.60
2022-11-10T10:39:48.398Z,12.50
2022-11-10T10:42:24.300Z,12.50
2022-11-10T10:45:17.372Z,12.50
2022-11-10T10:47:47.066Z,12.40
2022-11-10T10:50:28.157Z,12.40
2022-11-10T10:53:13.419Z,12.40
2022-11-10T10:55:47.644Z,12.30
2022-11-10T10:58:30.857Z,12.30
2022-11-10T11:01:07.442Z,12.30
2022-11-10T11:03:43.466Z,12.30
2022-11-10T11:06:22.765Z,12.30
2022-11-10T11:09:02.540Z,12.30
2022-11-10T11:11:33.855Z,12.20
2022-11-10T11:14:28.589Z,12.30
2022-11-10T11:17:00.845Z,12.20
2022-11-10T11:19:34.857Z,12.30
2022-11-10T11:22:36.017Z,12.30
2022-11-10T11:25:17.817Z,12.30
2022-11-10T11:27:56.432Z,12.30
2022-11-10T11:30:25.824Z,12.30
2022-11-10T11:33:25.018Z,12.30
2022-11-10T11:36:03.402Z,12.30
2022-11-10T11:38:41.847Z,12.30
2022-11-10T11:41:25.612Z,12.30
2022-11-10T11:44:13.284Z,12.30
2022-11-10T11:46:49.291Z,12.30
2022-11-10T11:49:52.612Z,12.30
2022-11-10T11:52:29.767Z,12.30
2022-11-10T11:55:18.321Z,12.30
2022-11-10T11:57:57.900Z,12.40
2022-11-10T12:00:26.604Z,12.40
2022-11-10T12:03:44.488Z,12.40
2022-11-10T12:06:44.648Z,12.30
2022-11-10T12:09:29.311Z,12.40
2022-11-10T12:12:23.321Z,12.40
2022-11-10T12:15:09.657Z,12.40
2022-11-10T12:17:59.813Z,12.40
2022-11-10T12:20:35.821Z,12.40
2022-11-10T12:23:23.212Z,12.40
2022-11-10T12:26:07.387Z,12.40
2022-11-10T12:28:43.324Z,12.50
2022-11-10T12:31:16.854Z,12.50
2022-11-10T12:34:10.421Z,12.50
2022-11-10T12:36:48.647Z,12.50
2022-11-10T12:39:25.771Z,12.50
2022-11-10T12:42:04.571Z,12.60
2022-11-10T12:44:38.224Z,12.50
2022-11-10T12:47:11.172Z,12.50
2022-11-10T12:49:42.731Z,12.60
2022-11-10T12:52:16.799Z,12.60
2022-11-10T12:54:48.001Z,12.60
2022-11-10T12:57:19.834Z,12.70
2022-11-10T12:59:55.769Z,12.60
2022-11-10T13:02:29.956Z,12.60
2022-11-10T13:05:35.493Z,12.60
2022-11-10T13:08:17.668Z,12.60
2022-11-10T13:10:56.710Z,12.60
2022-11-10T13:13:26.331Z,12.60
2022-11-10T13:15:57.848Z,12.60
2022-11-10T13:18:59.149Z,12.60
2022-11-10T13:21:57.002Z,12.60
2022-11-10T13:24:26.548Z,12.50
2022-11-10T13:26:57.243Z,12.50
2022-11-10T13:29:36.139Z,12.50
2022-11-10T13:32:27.313Z,12.50
2022-11-10T13:34:56.294Z,12.40
2022-11-10T13:37:51.003Z,12.40
2022-11-10T13:40:34.016Z,12.40
2022-11-10T13:43:26.047Z,12.50
2022-11-10T13:46:04.724Z,12.40
2022-11-10T13:48:46.359Z,12.40
2022-11-10T13:51:27.220Z,12.50
2022-11-10T13:54:10.987Z,12.60
2022-11-10T13:56:56.564Z,12.70
2022-11-10T13:59:27.677Z,12.70
2022-11-10T14:02:34.789Z,12.60
2022-11-10T14:05:03.891Z,12.60
2022-11-10T14:07:38.113Z,12.50
2022-11-10T14:10:12.634Z,12.40
2022-11-10T14:12:46.855Z,12.30
2022-11-10T14:15:20.175Z,12.30
2022-11-10T14:17:50.945Z,12.20
2022-11-10T14:20:25.965Z,12.10
2022-11-10T14:22:55.986Z,12.10
2022-11-10T14:25:27.548Z,12.00
2022-11-10T14:27:58.458Z,12.00
2022-11-10T14:30:29.023Z,12.00
2022-11-10T14:32:59.518Z,12.00
2022-11-10T14:35:30.507Z,11.90
2022-11-10T14:38:00.743Z,11.90
2022-11-10T14:40:29.914Z,11.90
2022-11-10T14:42:59.848Z,11.80
2022-11-10T14:45:30.327Z,11.80
2022-11-10T14:48:00.315Z,11.80
2022-11-10T14:50:29.752Z,11.70
2022-11-10T14:53:02.104Z,11.70
2022-11-10T14:55:32.821Z,11.70
2022-11-10T14:58:11.656Z,11.60
2022-11-10T15:00:44.170Z,11.60
2022-11-10T15:03:16.833Z,11.60
2022-11-10T15:05:45.608Z,11.60
2022-11-10T15:08:16.327Z,11.60
2022-11-10T15:10:48.307Z,11.60
2022-11-10T15:13:37.245Z,11.60
2022-11-10T15:16:34.242Z,11.50
2022-11-10T15:19:29.992Z,11.50
2022-11-10T15:22:10.506Z,11.50
2022-11-10T15:24:44.456Z,11.50
2022-11-10T15:27:29.476Z,11.40
2022-11-10T15:29:59.638Z,11.40
2022-11-10T15:32:41.113Z,11.50
2022-11-10T15:35:15.608Z,11.40
2022-11-10T15:38:00.690Z,11.40
2022-11-10T15:40:43.993Z,11.40
2022-11-10T15:43:18.579Z,11.30
2022-11-10T15:45:51.565Z,11.30
2022-11-10T15:48:22.971Z,11.20
2022-11-10T15:50:57.557Z,11.20
2022-11-10T15:53:32.874Z,11.20
2022-11-10T15:56:03.435Z,11.20
2022-11-10T15:58:44.383Z,11.10
2022-11-10T16:01:13.798Z,11.20
2022-11-10T16:03:44.242Z,11.10
2022-11-10T16:06:14.333Z,11.10
2022-11-10T16:08:48.643Z,11.10
2022-11-10T16:11:20.330Z,11.10
2022-11-10T16:13:50.390Z,11.00
2022-11-10T16:16:20.420Z,11.10
2022-11-10T16:18:52.734Z,11.10
2022-11-10T16:21:22.997Z,11.10
2022-11-10T16:23:56.600Z,11.10
2022-11-10T16:26:28.968Z,11.20
2022-11-10T16:29:02.039Z,11.20
2022-11-10T16:31:34.080Z,11.10
2022-11-10T16:34:09.907Z,11.10
2022-11-10T16:36:49.356Z,11.20
2022-11-10T16:39:26.818Z,11.10
2022-11-10T16:41:58.034Z,11.10
2022-11-10T16:44:28.391Z,11.00
2022-11-10T16:46:57.597Z,11.00
2022-11-10T16:49:36.081Z,11.00
2022-11-10T16:52:09.498Z,11.00
2022-11-10T16:54:41.036Z,11.00
2022-11-10T16:57:17.339Z,11.00
2022-11-10T16:59:45.983Z,11.10
2022-11-10T17:02:29.276Z,11.10
2022-11-10T17:05:05.741Z,11.10
2022-11-10T17:07:34.920Z,11.00
2022-11-10T17:10:03.659Z,11.10
2022-11-10T17:12:32.014Z,11.10
2022-11-10T17:15:00.221Z,11.10
2022-11-10T17:17:31.183Z,11.00
2022-11-10T17:20:01.615Z,11.00
2022-11-10T17:22:36.858Z,11.00
2022-11-10T17:25:06.227Z,11.00
2022-11-10T17:27:38.017Z,11.00
2022-11-10T17:30:08.724Z,11.00
2022-11-10T17:33:03.074Z,10.90
2022-11-10T17:35:27.683Z,10.90
2022-11-10T17:37:59.372Z,10.90
2022-11-10T17:40:29.993Z,10.80
2022-11-10T17:42:58.412Z,10.80
2022-11-10T17:45:28.640Z,10.80
2022-11-10T17:47:57.019Z,10.80
2022-11-10T17:50:27.532Z,10.70
2022-11-10T17:52:55.793Z,10.70
2022-11-10T17:55:28.555Z,10.70
2022-11-10T17:58:02.462Z,10.70
2022-11-10T18:00:30.858Z,10.70
2022-11-10T18:02:59.173Z,10.70
2022-11-10T18:05:29.091Z,10.70
2022-11-10T18:07:57.968Z,10.70
2022-11-10T18:10:26.211Z,10.60
2022-11-10T18:12:56.686Z,10.70
2022-11-10T18:15:26.579Z,10.70
2022-11-10T18:18:00.892Z,10.70
2022-11-10T18:20:30.823Z,10.70
2022-11-10T18:23:01.956Z,10.60
2022-11-10T18:25:30.309Z,10.60
2022-11-10T18:27:58.596Z,10.60
2022-11-10T18:30:34.756Z,10.50
2022-11-10T18:33:06.339Z,10.50
2022-11-10T18:35:39.235Z,10.50
2022-11-10T18:38:08.224Z,10.60
2022-11-10T18:40:38.467Z,10.50
2022-11-10T18:43:07.904Z,10.60
2022-11-10T18:45:40.295Z,10.60
2022-11-10T18:48:09.111Z,10.60
2022-11-10T18:50:40.235Z,10.50
2022-11-10T18:53:08.480Z,10.50
2022-11-10T18:55:40.540Z,10.50
2022-11-10T18:58:12.602Z,10.50
2022-11-10T19:00:40.937Z,10.50
2022-11-10T19:03:09.291Z,10.50
2022-11-10T19:05:39.442Z,10.40
2022-11-10T19:08:09.276Z,10.40
2022-11-10T19:10:42.527Z,10.40
2022-11-10T19:13:10.981Z,10.40
2022-11-10T19:15:42.195Z,10.40
2022-11-10T19:18:12.634Z,10.40
2022-11-10T19:20:44.241Z,10.30
2022-11-10T19:23:17.911Z,10.30
2022-11-10T19:25:48.913Z,10.30
2022-11-10T19:28:17.273Z,10.20
2022-11-10T19:30:45.674Z,10.20
2022-11-10T19:33:13.953Z,10.10
2022-11-10T19:35:46.420Z,10.20
2022-11-10T19:38:19.275Z,10.10
2022-11-10T19:40:50.971Z,10.10
2022-11-10T19:43:22.049Z,10.10
2022-11-10T19:45:51.738Z,10.10
2022-11-10T19:48:22.340Z,10.10
2022-11-10T19:50:57.501Z,10.00
2022-11-10T19:53:32.047Z,10.00
2022-11-10T19:56:05.252Z,10.00
2022-11-10T19:58:38.066Z,10.00
2022-11-10T20:01:09.399Z,10.00
2022-11-10T20:03:39.377Z,10.00
2022-11-10T20:06:12.602Z,10.00
2022-11-10T20:08:44.390Z,9.90
2022-11-10T20:11:15.734Z,9.90
2022-11-10T20:13:54.407Z,9.90
2022-11-10T20:16:26.037Z,9.80
2022-11-10T20:18:58.875Z,9.80
2022-11-10T20:21:29.655Z,9.80
2022-11-10T20:24:03.384Z,9.70
2022-11-10T20:26:34.047Z,9.80
2022-11-10T20:29:05.167Z,9.70
2022-11-10T20:31:33.714Z,9.80
2022-11-10T20:34:07.926Z,9.80
2022-11-10T20:36:36.198Z,9.80
2022-11-10T20:39:08.299Z,9.80
2022-11-10T20:41:37.827Z,9.80
2022-11-10T20:44:09.115Z,9.80
2022-11-10T20:46:53.999Z,9.80
2022-11-10T20:49:23.095Z,9.70
2022-11-10T20:52:02.089Z,9.70
2022-11-10T20:54:35.581Z,9.70
2022-11-10T20:57:12.422Z,9.70
2022-11-10T20:59:51.087Z,9.60
2022-11-10T21:02:47.036Z,9.60
2022-11-10T21:05:24.296Z,9.60
2022-11-10T21:07:58.289Z,9.60
2022-11-10T21:10:33.452Z,9.60
2022-11-10T21:13:03.167Z,9.60
2022-11-10T21:15:59.010Z,9.60
2022-11-10T21:18:49.361Z,9.60
2022-11-10T21:21:36.373Z,9.60
2022-11-10T21:24:09.560Z,9.70
2022-11-10T21:26:42.701Z,9.70
2022-11-10T21:29:13.814Z,9.70
2022-11-10T21:31:48.123Z,9.70
2022-11-10T21:34:16.551Z,9.70
2022-11-10T21:36:56.491Z,9.70
2022-11-10T21:39:38.674Z,9.60
2022-11-10T21:45:23.588Z,9.60
2022-11-10T21:48:04.796Z,9.60
2022-11-10T21:50:42.729Z,9.50
2022-11-10T21:53:26.798Z,9.50
2022-11-10T21:56:12.743Z,9.50
2022-11-10T21:58:51.759Z,9.50
2022-11-10T22:01:26.268Z,9.50
2022-11-10T22:04:12.216Z,9.50
2022-11-10T22:07:07.831Z,9.50
2022-11-10T22:09:54.348Z,9.50
2022-11-10T22:12:44.919Z,9.40
2022-11-10T22:15:39.992Z,9.40
2022-11-10T22:18:41.013Z,9.40
2022-11-10T22:21:21.224Z,9.40
2022-11-10T22:24:13.094Z,9.40
2022-11-10T22:29:47.752Z,9.40
2022-11-10T22:32:31.479Z,9.30
2022-11-10T22:35:05.886Z,9.40
2022-11-10T22:37:34.156Z,9.30
2022-11-10T22:40:23.848Z,9.30
2022-11-10T22:43:13.320Z,9.30
2022-11-10T22:45:45.615Z,9.20
2022-11-10T22:48:35.598Z,9.20
2022-11-10T22:51:12.614Z,9.20
2022-11-10T22:53:55.703Z,9.30
2022-11-10T22:56:36.973Z,9.30
2022-11-10T22:59:10.487Z,9.30
2022-11-10T23:04:52.703Z,9.20
2022-11-10T23:07:39.291Z,9.20
2022-11-10T23:10:18.836Z,9.20
2022-11-10T23:12:54.889Z,9.10
2022-11-10T23:21:52.863Z,9.20
2022-11-10T23:24:57.668Z,9.20
2022-11-10T23:27:30.991Z,9.20
2022-11-10T23:30:11.244Z,9.20
2022-11-10T23:32:54.796Z,9.10
2022-11-10T23:35:33.400Z,9.20
2022-11-10T23:38:22.120Z,9.10
2022-11-10T23:41:00.905Z,9.10
2022-11-10T23:50:04.984Z,9.10
2022-11-10T23:52:48.015Z,9.10
2022-11-10T23:55:33.228Z,9.10
2022-11-10T23:58:23.411Z,9.10
